createdAt,value
2022-10-02T00:02:36.084Z,14.14
2022-10-02T00:07:50.335Z,14.10
2022-10-02T00:13:02.075Z,14.08
2022-10-02T00:18:19.281Z,14.22
2022-10-02T00:23:37.865Z,14.14
2022-10-02T00:28:46.778Z,14.17
2022-10-02T00:34:09.989Z,14.19
2022-10-02T00:39:46.556Z,14.23
2022-10-02T00:45:19.873Z,14.19
2022-10-02T00:51:05.951Z,14.20
2022-10-02T00:56:41.976Z,14.08
2022-10-02T01:01:54.130Z,14.20
2022-10-02T01:06:56.525Z,14.24
2022-10-02T01:11:59.485Z,14.12
2022-10-02T01:17:02.611Z,14.12
2022-10-02T01:22:17.502Z,14.17
2022-10-02T01:27:19.785Z,14.28
2022-10-02T01:32:25.992Z,14.28
2022-10-02T01:37:31.341Z,14.24
2022-10-02T01:42:34.184Z,14.36
2022-10-02T01:47:50.807Z,14.33
2022-10-02T01:53:15.730Z,14.40
2022-10-02T01:58:45.904Z,14.29
2022-10-02T02:04:15.293Z,14.30
2022-10-02T02:09:33.848Z,14.18
2022-10-02T02:14:42.320Z,14.21
2022-10-02T02:19:59.765Z,14.15
2022-10-02T02:25:12.129Z,14.11
2022-10-02T02:30:15.293Z,14.19
2022-10-02T02:35:33.771Z,14.15
2022-10-02T02:40:41.860Z,14.22
2022-10-02T02:46:00.012Z,14.03
2022-10-02T02:51:09.487Z,14.19
2022-10-02T02:56:16.157Z,14.26
2022-10-02T03:01:18.053Z,14.27
2022-10-02T03:06:31.573Z,14.25
2022-10-02T03:11:48.482Z,14.15
2022-10-02T03:17:10.880Z,14.07
2022-10-02T03:22:21.832Z,14.09
2022-10-02T03:27:32.598Z,14.26
2022-10-02T03:32:39.291Z,14.24
2022-10-02T03:37:43.592Z,14.23
2022-10-02T03:42:45.571Z,14.07
2022-10-02T03:47:47.593Z,13.97
2022-10-02T03:52:51.871Z,14.05
2022-10-02T03:57:55.021Z,14.08
2022-10-02T04:02:58.948Z,14.10
2022-10-02T04:08:09.405Z,14.20
2022-10-02T04:13:20.521Z,14.12
2022-10-02T04:18:38.743Z,14.32
2022-10-02T04:23:50.497Z,14.35
2022-10-02T04:29:01.061Z,14.24
2022-10-02T04:34:07.708Z,14.29
2022-10-02T04:39:15.658Z,14.42
2022-10-02T04:44:31.053Z,14.41
2022-10-02T04:50:14.970Z,14.36
2022-10-02T04:55:57.149Z,14.32
2022-10-02T05:01:09.341Z,14.33
2022-10-02T05:06:24.581Z,14.37
2022-10-02T05:11:38.429Z,14.40
2022-10-02T05:17:03.804Z,14.23
2022-10-02T05:22:08.470Z,14.36
2022-10-02T05:27:19.531Z,14.45
2022-10-02T05:32:33.460Z,14.36
2022-10-02T05:37:35.224Z,14.54
2022-10-02T05:42:47.808Z,14.44
2022-10-02T05:48:09.973Z,14.59
2022-10-02T05:53:31.645Z,14.58
2022-10-02T05:58:56.641Z,14.74
2022-10-02T06:04:24.345Z,14.78
2022-10-02T06:10:23.116Z,15.02
2022-10-02T06:15:32.501Z,14.82
2022-10-02T06:20:40.722Z,15.00
2022-10-02T06:25:56.266Z,14.64
2022-10-02T06:31:21.777Z,14.67
2022-10-02T06:36:52.733Z,14.73
2022-10-02T06:41:57.390Z,14.98
2022-10-02T06:47:17.692Z,14.98
2022-10-02T06:52:45.026Z,14.74
2022-10-02T07:03:51.081Z,14.49
2022-10-02T07:09:23.353Z,14.77
2022-10-02T07:15:05.952Z,14.96
2022-10-02T07:20:38.624Z,14.75
2022-10-02T07:26:18.986Z,14.94
2022-10-02T07:31:32.788Z,15.23
2022-10-02T07:37:08.782Z,15.37
2022-10-02T07:42:17.631Z,15.30
2022-10-02T07:47:44.383Z,15.30
2022-10-02T07:53:20.425Z,14.88
2022-10-02T07:58:36.912Z,15.96
2022-10-02T08:03:50.249Z,16.04
2022-10-02T08:09:14.462Z,16.07
2022-10-02T08:14:38.252Z,15.96
2022-10-02T08:19:45.976Z,16.18
2022-10-02T08:24:53.841Z,16.19
2022-10-02T08:29:59.949Z,16.39
2022-10-02T08:35:05.993Z,16.13
2022-10-02T08:40:19.883Z,16.34
2022-10-02T08:45:36.929Z,16.59
2022-10-02T08:51:18.551Z,16.10
2022-10-02T08:57:01.693Z,16.05
2022-10-02T09:02:11.236Z,15.86
2022-10-02T09:07:26.008Z,16.05
2022-10-02T09:13:11.250Z,16.31
2022-10-02T09:18:17.803Z,16.67
2022-10-02T09:23:38.130Z,16.65
2022-10-02T09:29:28.112Z,16.75
2022-10-02T09:34:52.330Z,16.24
2022-10-02T09:40:09.864Z,16.14
2022-10-02T09:45:44.022Z,16.63
2022-10-02T09:51:19.840Z,17.18
2022-10-02T09:56:25.551Z,17.69
2022-10-02T10:01:45.951Z,17.52
2022-10-02T10:06:54.133Z,16.90
2022-10-02T10:12:14.605Z,16.60
2022-10-02T10:17:25.654Z,17.65
2022-10-02T10:22:39.062Z,17.32
2022-10-02T10:27:59.309Z,17.24
2022-10-02T10:33:27.967Z,15.40
2022-10-02T10:38:52.189Z,15.95
2022-10-02T10:44:18.721Z,15.80
2022-10-02T10:49:36.060Z,15.65
2022-10-02T10:54:45.080Z,15.60
2022-10-02T11:00:17.937Z,15.78
2022-10-02T11:05:47.448Z,16.11
2022-10-02T11:11:19.820Z,15.90
2022-10-02T11:16:30.972Z,15.98
2022-10-02T11:21:44.808Z,16.30
2022-10-02T11:26:49.292Z,16.42
2022-10-02T11:31:57.087Z,16.06
2022-10-02T11:37:24.327Z,16.52
2022-10-02T11:42:58.158Z,16.80
2022-10-02T11:48:20.212Z,17.17
2022-10-02T11:54:03.316Z,17.72
2022-10-02T11:59:30.716Z,17.46
2022-10-02T12:05:04.474Z,17.28
2022-10-02T12:10:45.120Z,17.15
2022-10-02T12:16:26.366Z,17.46
2022-10-02T12:21:50.030Z,17.81
2022-10-02T12:27:17.333Z,18.37
2022-10-02T12:32:57.165Z,18.06
2022-10-02T12:38:27.058Z,17.85
2022-10-02T12:43:59.230Z,18.30
2022-10-02T12:49:20.906Z,18.32
2022-10-02T12:54:37.803Z,18.12
2022-10-02T12:59:55.785Z,17.84
2022-10-02T13:05:28.082Z,18.15
2022-10-02T13:10:57.365Z,17.79
2022-10-02T13:16:34.500Z,17.94
2022-10-02T13:21:48.217Z,17.96
2022-10-02T13:27:02.409Z,17.80
2022-10-02T13:32:25.823Z,17.78
2022-10-02T13:37:43.701Z,17.89
2022-10-02T13:43:05.920Z,17.83
2022-10-02T13:48:19.682Z,17.59
2022-10-02T13:53:30.622Z,17.41
2022-10-02T13:58:58.386Z,17.73
2022-10-02T14:04:30.038Z,17.35
2022-10-02T14:09:48.367Z,17.11
2022-10-02T14:15:08.938Z,17.65
2022-10-02T14:20:29.533Z,17.80
2022-10-02T14:25:53.333Z,17.74
2022-10-02T14:31:21.896Z,17.11
2022-10-02T14:36:32.288Z,17.40
2022-10-02T14:41:58.811Z,17.64
2022-10-02T14:47:17.196Z,17.43
2022-10-02T14:52:27.902Z,17.17
2022-10-02T14:57:29.787Z,17.11
2022-10-02T15:02:54.594Z,17.00
2022-10-02T15:07:57.738Z,16.59
2022-10-02T15:13:10.545Z,16.29
2022-10-02T15:18:58.130Z,16.10
2022-10-02T15:24:25.710Z,16.08
2022-10-02T15:29:36.832Z,15.93
2022-10-02T15:34:55.331Z,15.82
2022-10-02T15:40:19.268Z,15.72
2022-10-02T15:45:33.530Z,15.53
2022-10-02T15:50:47.577Z,15.33
2022-10-02T15:55:55.863Z,15.15
2022-10-02T16:01:39.239Z,14.94
2022-10-02T16:07:10.221Z,14.71
2022-10-02T16:12:27.299Z,14.58
2022-10-02T16:17:48.587Z,14.41
2022-10-02T16:22:58.591Z,14.33
2022-10-02T16:28:06.531Z,14.19
2022-10-02T16:33:17.005Z,14.11
2022-10-02T16:38:25.160Z,14.04
2022-10-02T16:43:34.791Z,13.97
2022-10-02T16:49:01.481Z,13.89
2022-10-02T16:54:17.423Z,13.73
2022-10-02T16:59:26.041Z,13.79
2022-10-02T17:05:03.523Z,13.78
2022-10-02T17:10:20.543Z,13.60
2022-10-02T17:15:40.654Z,13.44
2022-10-02T17:20:56.197Z,13.37
2022-10-02T17:25:58.780Z,13.29
2022-10-02T17:31:00.907Z,13.22
2022-10-02T17:36:19.634Z,13.16
2022-10-02T17:41:42.428Z,13.14
2022-10-02T17:47:08.673Z,13.08
2022-10-02T17:52:35.113Z,13.08
2022-10-02T17:58:13.077Z,13.15
2022-10-02T18:03:55.718Z,13.17
2022-10-02T18:09:12.886Z,13.17
2022-10-02T18:14:21.004Z,13.18
2022-10-02T18:19:27.980Z,13.18
2022-10-02T18:24:46.102Z,13.32
2022-10-02T18:29:59.901Z,13.19
2022-10-02T18:35:24.224Z,13.08
2022-10-02T18:40:37.074Z,13.01
2022-10-02T18:45:56.021Z,12.91
2022-10-02T18:51:01.139Z,12.87
2022-10-02T18:56:08.587Z,12.82
2022-10-02T19:01:16.581Z,12.82
2022-10-02T19:06:27.680Z,12.78
2022-10-02T19:11:39.050Z,12.78
2022-10-02T19:16:59.283Z,12.82
2022-10-02T19:22:09.644Z,12.79
2022-10-02T19:27:44.635Z,12.76
2022-10-02T19:32:55.118Z,12.79
2022-10-02T19:38:12.717Z,12.86
2022-10-02T19:43:26.597Z,12.99
2022-10-02T19:48:30.962Z,13.17
2022-10-02T19:53:40.922Z,13.25
2022-10-02T19:58:49.796Z,13.27
2022-10-02T20:04:03.600Z,13.09
2022-10-02T20:09:08.459Z,13.21
2022-10-02T20:14:17.478Z,13.15
2022-10-02T20:19:34.482Z,13.04
2022-10-02T20:24:45.261Z,12.87
2022-10-02T20:29:52.802Z,12.82
2022-10-02T20:35:02.835Z,12.86
2022-10-02T20:40:17.065Z,13.09
2022-10-02T20:45:23.444Z,13.01
2022-10-02T20:50:40.506Z,13.26
2022-10-02T20:55:45.260Z,13.35
2022-10-02T21:00:56.836Z,13.51
2022-10-02T21:06:46.870Z,13.63
2022-10-02T21:12:04.077Z,13.68
2022-10-02T21:17:08.904Z,13.81
2022-10-02T21:22:23.182Z,13.76
2022-10-02T21:28:03.507Z,13.78
2022-10-02T21:33:14.422Z,13.76
2022-10-02T21:38:28.178Z,13.63
2022-10-02T21:43:33.471Z,13.36
2022-10-02T21:48:50.671Z,13.56
2022-10-02T21:54:02.106Z,13.45
2022-10-02T21:59:19.563Z,13.36
2022-10-02T22:04:52.621Z,13.18
2022-10-02T22:10:30.267Z,13.25
2022-10-02T22:15:50.698Z,13.06
2022-10-02T22:21:11.445Z,12.87
2022-10-02T22:26:46.879Z,12.75
2022-10-02T22:32:34.402Z,12.44
2022-10-02T22:37:54.894Z,12.30
2022-10-02T22:43:04.979Z,12.13
2022-10-02T22:48:14.552Z,12.15
2022-10-02T22:53:35.489Z,12.20
2022-10-02T22:58:44.392Z,12.26
2022-10-02T23:04:01.745Z,12.32
2022-10-02T23:09:30.036Z,12.15
2022-10-02T23:14:53.130Z,12.33
2022-10-02T23:20:19.928Z,12.29
2022-10-02T23:25:30.616Z,12.52
2022-10-02T23:30:40.778Z,12.61
2022-10-02T23:35:45.516Z,12.52
2022-10-02T23:41:26.540Z,12.74
2022-10-02T23:47:00.039Z,12.71
2022-10-02T23:52:37.907Z,12.74
2022-10-02T23:58:13.415Z,12.76
